Time;durP1;ratioP1;P1;durP2;ratioP2;P2;SDS_P1;SDS_P2;PMS_P1;PMS_P2;Temp;Humidity;BMP_temperature;BMP_pressure;BME280_temperature;BME280_humidity;BME280_pressure;Samples;Min_cycle;Max_cycle;Signal;HPM_P1;HPM_P2
2023/11/05 00:00:29;;;;;;;6.63;2.80;;;10.20;99.90;;;;;;2056739;28;20039;-75
2023/11/05 00:01:30;;;;;;;3.60;2.60;;;10.20;99.90;;;;;;2056312;28;20038;-75
2023/11/05 00:02:30;;;;;;;4.38;2.63;;;10.20;99.90;;;;;;2061611;28;20066;-76
2023/11/05 00:03:31;;;;;;;4.05;2.70;;;10.20;99.90;;;;;;2062596;28;20330;-75
2023/11/05 00:04:32;;;;;;;4.28;2.95;;;10.20;99.90;;;;;;2057402;28;20026;-76
2023/11/05 00:05:32;;;;;;;4.45;2.85;;;10.20;99.90;;;;;;2054483;28;20033;-76
2023/11/05 00:06:34;;;;;;;4.00;2.72;;;10.10;99.90;;;;;;2055952;28;20019;-76
2023/11/05 00:07:34;;;;;;;3.67;2.70;;;10.20;99.90;;;;;;2056004;28;20121;-77
2023/11/05 00:08:35;;;;;;;4.15;2.70;;;10.20;99.90;;;;;;2065243;28;20867;-76
2023/11/05 00:09:35;;;;;;;6.00;2.38;;;10.20;99.90;;;;;;2057598;28;20030;-77
2023/11/05 00:10:36;;;;;;;3.10;2.50;;;10.10;99.90;;;;;;2049347;28;20618;-77
2023/11/05 00:11:37;;;;;;;3.45;2.50;;;10.20;99.90;;;;;;2056182;28;20026;-77
2023/11/05 00:12:37;;;;;;;3.92;2.40;;;10.20;99.90;;;;;;2049081;28;20026;-75
2023/11/05 00:13:38;;;;;;;4.43;2.97;;;10.20;99.90;;;;;;2055235;28;20600;-76
2023/11/05 00:14:38;;;;;;;3.95;2.58;;;10.20;99.90;;;;;;2057520;28;20042;-76
2023/11/05 00:15:39;;;;;;;3.85;2.22;;;10.20;99.90;;;;;;2056254;28;20132;-75
2023/11/05 00:16:40;;;;;;;2.38;2.10;;;10.20;99.90;;;;;;2052314;28;20038;-76
2023/11/05 00:17:40;;;;;;;3.25;2.53;;;10.20;99.90;;;;;;2057539;28;20094;-77
2023/11/05 00:18:41;;;;;;;3.97;2.40;;;10.20;99.90;;;;;;2063227;28;20042;-76
2023/11/05 00:19:42;;;;;;;3.20;2.30;;;10.20;99.90;;;;;;2061873;28;20096;-75
2023/11/05 00:20:42;;;;;;;3.42;2.35;;;10.20;99.90;;;;;;2061540;28;20046;-76
2023/11/05 00:21:44;;;;;;;3.22;2.17;;;10.10;99.90;;;;;;2062462;28;20030;-76
2023/11/05 00:22:44;;;;;;;3.38;2.20;;;10.10;99.90;;;;;;2062254;28;20056;-75
2023/11/05 00:23:46;;;;;;;2.58;2.10;;;10.20;99.90;;;;;;2066169;28;20515;-76
2023/11/05 00:24:46;;;;;;;4.15;2.13;;;10.20;99.90;;;;;;2058519;28;20108;-76
2023/11/05 00:25:47;;;;;;;2.60;2.30;;;10.10;99.90;;;;;;2069734;28;20116;-75
2023/11/05 00:26:47;;;;;;;3.20;2.30;;;10.10;99.90;;;;;;2066186;28;20026;-74
2023/11/05 00:27:48;;;;;;;4.38;2.30;;;10.10;99.90;;;;;;2062497;28;20389;-77
2023/11/05 00:28:49;;;;;;;3.67;2.35;;;10.10;99.90;;;;;;2065585;28;20030;-76
2023/11/05 00:29:49;;;;;;;3.20;2.45;;;10.10;99.90;;;;;;2065707;28;20041;-77
2023/11/05 00:30:51;;;;;;;3.78;2.60;;;10.10;99.90;;;;;;2066213;28;20025;-76
2023/11/05 00:31:53;;;;;;;3.53;2.40;;;10.10;99.90;;;;;;2066518;28;20022;-76
2023/11/05 00:32:53;;;;;;;5.00;2.60;;;10.10;99.90;;;;;;2062427;28;20121;-76
2023/11/05 00:33:54;;;;;;;3.58;2.63;;;10.10;99.90;;;;;;2065724;28;20053;-77
2023/11/05 00:34:54;;;;;;;3.38;2.72;;;10.10;99.90;;;;;;2063229;28;20029;-77
2023/11/05 00:35:55;;;;;;;3.35;2.63;;;10.10;99.90;;;;;;2066764;28;20026;-75
2023/11/05 00:36:56;;;;;;;3.65;2.80;;;10.10;99.90;;;;;;2066241;28;20033;-76
2023/11/05 00:37:56;;;;;;;2.92;2.45;;;10.10;99.90;;;;;;2066453;28;20034;-74
2023/11/05 00:38:57;;;;;;;3.50;2.78;;;10.10;99.90;;;;;;2064692;28;20524;-75
2023/11/05 00:39:57;;;;;;;3.92;2.70;;;10.00;99.90;;;;;;2056189;28;20097;-76
2023/11/05 00:40:59;;;;;;;4.15;2.90;;;10.00;99.90;;;;;;2054843;28;20040;-76
2023/11/05 00:41:59;;;;;;;4.28;2.40;;;10.00;99.90;;;;;;2065792;28;20033;-76
2023/11/05 00:43:00;;;;;;;4.57;2.60;;;10.00;99.90;;;;;;2061122;28;20424;-75
2023/11/05 00:44:01;;;;;;;3.92;2.53;;;10.00;99.90;;;;;;2062570;28;20104;-75
2023/11/05 00:45:01;;;;;;;2.92;2.42;;;10.00;99.90;;;;;;2059873;28;20076;-76
2023/11/05 00:46:02;;;;;;;4.28;2.60;;;10.10;99.90;;;;;;2060899;28;20037;-84
2023/11/05 00:47:03;;;;;;;2.92;2.30;;;10.00;99.90;;;;;;2064323;28;20051;-81
2023/11/05 00:48:04;;;;;;;4.05;2.42;;;10.10;99.90;;;;;;2064052;28;20057;-82
2023/11/05 00:49:04;;;;;;;3.60;2.20;;;10.00;99.90;;;;;;2064189;28;20037;-81
2023/11/05 00:50:05;;;;;;;3.53;2.38;;;10.00;99.90;;;;;;2067030;28;20037;-82
2023/11/05 00:51:06;;;;;;;3.33;2.70;;;10.10;99.90;;;;;;2066425;28;20026;-81
2023/11/05 00:52:06;;;;;;;4.88;2.80;;;10.10;99.90;;;;;;2059481;28;20489;-80
2023/11/05 00:53:07;;;;;;;5.38;2.60;;;10.00;99.90;;;;;;2065974;28;20038;-82
2023/11/05 00:54:09;;;;;;;3.05;2.47;;;10.00;99.90;;;;;;2061058;28;20173;-81
2023/11/05 00:55:09;;;;;;;5.00;2.42;;;10.10;99.90;;;;;;2060250;28;20476;-80
2023/11/05 00:56:10;;;;;;;3.85;2.60;;;10.00;99.90;;;;;;2046064;28;20027;-82
2023/11/05 00:57:10;;;;;;;2.80;2.50;;;10.00;99.90;;;;;;2050314;28;20089;-80
2023/11/05 00:58:11;;;;;;;3.10;2.40;;;10.00;99.90;;;;;;2063782;28;21203;-82
2023/11/05 00:59:12;;;;;;;3.38;2.67;;;10.10;99.90;;;;;;2065230;28;20030;-83
2023/11/05 01:00:13;;;;;;;4.57;2.67;;;10.00;99.90;;;;;;2058524;28;20722;-82
2023/11/05 01:01:14;;;;;;;5.72;2.63;;;10.00;99.90;;;;;;2056106;28;20105;-81
2023/11/05 01:02:14;;;;;;;4.55;2.75;;;10.00;99.90;;;;;;2055947;28;20042;-83
2023/11/05 01:03:15;;;;;;;3.42;2.80;;;10.00;99.90;;;;;;2049271;28;20030;-82
2023/11/05 01:04:16;;;;;;;4.43;2.80;;;10.00;99.90;;;;;;2059780;28;20096;-82
2023/11/05 01:05:17;;;;;;;5.13;2.80;;;10.00;99.90;;;;;;2062017;28;20038;-82
2023/11/05 01:06:17;;;;;;;3.67;2.70;;;10.00;99.90;;;;;;2056796;28;20114;-82
2023/11/05 01:07:18;;;;;;;3.08;2.78;;;10.00;99.90;;;;;;2058435;28;20547;-80
2023/11/05 01:08:19;;;;;;;3.20;2.83;;;10.10;99.90;;;;;;2062414;28;20030;-80
2023/11/05 01:09:20;;;;;;;4.85;2.85;;;10.10;99.90;;;;;;2054377;28;20027;-83
2023/11/05 01:10:21;;;;;;;5.05;2.95;;;10.10;99.90;;;;;;2056714;28;20030;-83
2023/11/05 01:11:21;;;;;;;4.80;3.00;;;10.10;99.90;;;;;;2053910;28;20362;-83
2023/11/05 01:12:22;;;;;;;4.68;3.13;;;10.10;99.90;;;;;;2055701;28;20073;-82
2023/11/05 01:13:24;;;;;;;4.10;3.00;;;10.10;99.90;;;;;;2068804;28;20120;-82
2023/11/05 01:14:24;;;;;;;3.90;2.97;;;10.10;99.90;;;;;;2065997;28;20044;-82
2023/11/05 01:15:25;;;;;;;5.07;2.90;;;10.00;99.90;;;;;;2065948;28;20036;-81
2023/11/05 01:16:26;;;;;;;4.10;2.78;;;10.00;99.90;;;;;;2059883;28;20515;-82
2023/11/05 01:17:27;;;;;;;5.53;3.15;;;10.00;99.90;;;;;;2063577;28;20042;-82
2023/11/05 01:18:27;;;;;;;4.18;3.00;;;10.00;99.90;;;;;;2057931;28;20026;-83
2023/11/05 01:19:28;;;;;;;3.45;3.00;;;10.00;99.90;;;;;;2049867;28;20045;-82
2023/11/05 01:20:29;;;;;;;4.32;2.95;;;10.00;99.90;;;;;;2057342;28;20495;-82
2023/11/05 01:21:30;;;;;;;4.15;3.00;;;10.10;99.90;;;;;;2059363;28;20421;-83
2023/11/05 01:22:30;;;;;;;4.88;3.10;;;10.10;99.90;;;;;;2059375;28;20092;-82
2023/11/05 01:23:31;;;;;;;4.50;3.15;;;10.10;99.90;;;;;;2055558;28;20038;-81
2023/11/05 01:24:32;;;;;;;4.45;3.30;;;10.10;99.90;;;;;;2069768;28;20068;-83
2023/11/05 01:25:32;;;;;;;5.30;3.25;;;10.10;99.90;;;;;;2060201;28;20038;-82
2023/11/05 01:26:33;;;;;;;6.13;3.28;;;10.10;99.90;;;;;;2056136;28;20041;-81
2023/11/05 01:27:33;;;;;;;4.38;3.05;;;10.10;99.90;;;;;;2055246;28;20121;-82
2023/11/05 01:28:34;;;;;;;3.55;3.10;;;10.10;99.90;;;;;;2050846;28;20602;-82
2023/11/05 01:29:35;;;;;;;3.83;2.92;;;10.10;99.90;;;;;;2050108;28;20413;-81
2023/11/05 01:30:35;;;;;;;3.70;3.20;;;10.10;99.90;;;;;;2055458;28;20030;-82
2023/11/05 01:31:36;;;;;;;3.53;2.88;;;10.10;99.90;;;;;;2066783;28;20481;-83
2023/11/05 01:32:37;;;;;;;4.43;3.45;;;10.10;99.90;;;;;;2067094;28;20121;-81
2023/11/05 01:33:37;;;;;;;4.80;3.22;;;10.10;99.90;;;;;;2067321;28;20516;-81
2023/11/05 01:34:38;;;;;;;7.28;3.03;;;10.00;99.90;;;;;;2056118;28;20531;-82
2023/11/05 01:35:39;;;;;;;4.07;3.30;;;10.10;99.90;;;;;;2059975;28;20022;-82
2023/11/05 01:36:39;;;;;;;4.28;3.35;;;10.10;99.90;;;;;;2064694;28;20575;-81
2023/11/05 01:37:40;;;;;;;5.20;3.50;;;10.10;99.90;;;;;;2067899;28;20456;-82
2023/11/05 01:38:40;;;;;;;4.60;3.58;;;10.10;99.90;;;;;;2068112;28;20033;-81
2023/11/05 01:39:41;;;;;;;4.20;3.30;;;10.10;99.90;;;;;;2060512;28;20081;-82
2023/11/05 01:40:42;;;;;;;3.72;2.95;;;10.00;99.90;;;;;;2063988;28;20616;-81
2023/11/05 01:41:42;;;;;;;5.15;3.10;;;10.10;99.90;;;;;;2068605;28;20561;-81
2023/11/05 01:42:43;;;;;;;4.57;3.13;;;10.10;99.90;;;;;;2069106;28;20558;-82
2023/11/05 01:43:43;;;;;;;5.57;3.22;;;10.10;99.90;;;;;;2068323;28;20607;-81
2023/11/05 01:44:44;;;;;;;4.65;3.40;;;10.10;99.90;;;;;;2056340;28;20036;-83
2023/11/05 01:45:44;;;;;;;5.38;3.05;;;10.10;99.90;;;;;;2059927;28;20041;-81
2023/11/05 01:46:46;;;;;;;6.28;3.30;;;10.10;99.90;;;;;;2060521;28;20066;-82
2023/11/05 01:47:47;;;;;;;6.18;3.72;;;10.10;99.90;;;;;;2053826;28;20107;-80
2023/11/05 01:48:47;;;;;;;6.22;3.38;;;10.10;99.90;;;;;;2054705;28;20035;-82
2023/11/05 01:49:48;;;;;;;5.20;3.40;;;10.10;99.90;;;;;;2052720;28;20041;-81
2023/11/05 01:50:49;;;;;;;4.78;3.40;;;10.10;99.90;;;;;;2059068;28;20045;-82
2023/11/05 01:51:50;;;;;;;5.70;3.60;;;10.10;99.90;;;;;;2058267;28;20030;-81
2023/11/05 01:52:55;;;;;;;4.07;3.08;;;10.10;99.90;;;;;;2067700;28;20026;-81
2023/11/05 01:53:56;;;;;;;4.78;3.10;;;10.10;99.90;;;;;;2063719;28;20116;-80
2023/11/05 01:54:57;;;;;;;7.28;3.35;;;10.10;99.90;;;;;;2066395;28;20038;-82
2023/11/05 01:55:58;;;;;;;4.65;3.30;;;10.10;99.90;;;;;;2056790;28;20722;-81
2023/11/05 01:56:58;;;;;;;4.63;3.17;;;10.00;99.90;;;;;;2058857;28;20015;-83
2023/11/05 01:57:59;;;;;;;4.70;2.83;;;10.00;99.90;;;;;;2059509;28;20439;-82
2023/11/05 01:59:02;;;;;;;3.53;2.88;;;10.00;99.90;;;;;;2061034;28;20030;-82
2023/11/05 02:00:05;;;;;;;5.15;3.17;;;10.10;99.90;;;;;;2065035;28;20026;-82
2023/11/05 02:01:12;;;;;;;4.25;2.80;;;10.10;99.90;;;;;;2066690;28;20029;-82
2023/11/05 02:02:14;;;;;;;5.03;3.10;;;10.10;99.90;;;;;;2066090;28;20143;-82
2023/11/05 02:03:15;;;;;;;5.20;2.97;;;10.10;99.90;;;;;;2056791;28;20480;-82
2023/11/05 02:04:15;;;;;;;4.43;3.08;;;10.10;99.90;;;;;;2059381;28;20121;-82
2023/11/05 02:05:16;;;;;;;8.63;3.25;;;10.10;99.90;;;;;;2058642;28;20040;-82
2023/11/05 02:06:17;;;;;;;4.30;2.95;;;10.10;99.90;;;;;;2047273;28;20474;-82
2023/11/05 02:07:17;;;;;;;5.93;3.10;;;10.10;99.90;;;;;;2044095;28;20443;-82
2023/11/05 02:08:18;;;;;;;3.72;2.63;;;10.10;99.90;;;;;;2054017;28;20033;-81
2023/11/05 02:09:19;;;;;;;3.95;2.85;;;10.10;99.90;;;;;;2065335;28;20072;-83
2023/11/05 02:10:19;;;;;;;4.95;2.92;;;10.10;99.90;;;;;;2056616;28;20091;-83
2023/11/05 02:11:20;;;;;;;3.60;2.80;;;10.10;99.90;;;;;;2058662;28;20480;-81
2023/11/05 02:12:21;;;;;;;4.60;2.90;;;10.10;99.90;;;;;;2056459;28;20273;-82
2023/11/05 02:13:22;;;;;;;4.65;3.00;;;10.10;99.90;;;;;;2058828;28;20041;-82
2023/11/05 02:14:22;;;;;;;3.60;2.75;;;10.10;99.90;;;;;;2058747;28;20030;-83
2023/11/05 02:15:24;;;;;;;4.90;2.80;;;10.10;99.90;;;;;;2062870;28;20076;-81
2023/11/05 02:16:31;;;;;;;4.75;3.03;;;10.10;99.90;;;;;;2053283;28;20042;-81
2023/11/05 02:17:31;;;;;;;5.63;2.80;;;10.10;99.90;;;;;;2063322;28;20271;-82
2023/11/05 02:18:32;;;;;;;3.10;2.70;;;10.10;99.90;;;;;;2063966;28;20028;-81
2023/11/05 02:19:32;;;;;;;3.80;2.70;;;10.10;99.90;;;;;;2058264;28;20065;-83
2023/11/05 02:20:33;;;;;;;4.22;2.67;;;10.10;99.90;;;;;;2046425;28;20039;-81
2023/11/05 02:21:42;;;;;;;4.55;2.88;;;10.10;99.90;;;;;;2055337;28;20508;-81
2023/11/05 02:22:44;;;;;;;4.22;2.65;;;10.10;99.90;;;;;;2064432;28;20116;-81
2023/11/05 02:23:46;;;;;;;3.53;2.72;;;10.10;99.90;;;;;;2055210;28;20037;-82
2023/11/05 02:24:50;;;;;;;4.03;2.63;;;10.10;99.90;;;;;;2055662;28;20085;-82
2023/11/05 02:25:50;;;;;;;4.72;2.92;;;10.10;99.90;;;;;;2067484;28;20117;-81
2023/11/05 02:26:58;;;;;;;4.43;2.97;;;10.10;99.90;;;;;;2063257;28;20032;-82
2023/11/05 02:28:01;;;;;;;5.95;3.70;;;10.10;99.90;;;;;;2067966;28;20396;-81
2023/11/05 02:29:01;;;;;;;4.50;3.10;;;10.10;99.90;;;;;;2069816;28;20025;-82
2023/11/05 02:30:02;;;;;;;3.88;2.88;;;10.10;99.90;;;;;;2063324;28;20489;-82
2023/11/05 02:31:03;;;;;;;4.68;2.92;;;10.10;99.90;;;;;;2057885;28;20034;-82
2023/11/05 02:32:04;;;;;;;4.72;3.20;;;10.10;99.90;;;;;;2059027;28;20023;-82
2023/11/05 02:33:05;;;;;;;3.78;2.80;;;10.10;99.90;;;;;;2056804;28;20175;-83
2023/11/05 02:34:06;;;;;;;4.15;2.70;;;10.20;99.90;;;;;;2056610;28;20142;-81
2023/11/05 02:35:07;;;;;;;4.13;2.75;;;10.10;99.90;;;;;;2064891;28;20657;-82
2023/11/05 02:36:09;;;;;;;3.03;2.40;;;10.10;99.90;;;;;;2064276;28;20445;-82
2023/11/05 02:37:11;;;;;;;3.35;2.67;;;10.10;99.90;;;;;;2057549;28;20044;-82
2023/11/05 02:38:12;;;;;;;4.07;2.58;;;10.10;99.90;;;;;;2059103;28;20995;-82
2023/11/05 02:39:13;;;;;;;6.72;2.92;;;10.10;99.90;;;;;;2059325;28;20037;-82
2023/11/05 02:40:14;;;;;;;3.30;2.60;;;10.10;99.90;;;;;;2054120;28;20073;-82
2023/11/05 02:41:14;;;;;;;3.35;2.60;;;10.10;99.90;;;;;;2056333;28;20034;-82
2023/11/05 02:42:15;;;;;;;3.78;2.72;;;10.10;99.90;;;;;;2063376;28;20025;-80
2023/11/05 02:43:16;;;;;;;4.50;2.72;;;10.10;99.90;;;;;;2060525;28;20026;-82
2023/11/05 02:44:17;;;;;;;3.30;2.70;;;10.10;99.90;;;;;;2066070;28;20089;-82
2023/11/05 02:45:19;;;;;;;2.90;2.40;;;10.10;99.90;;;;;;2067537;28;20034;-82
2023/11/05 02:46:19;;;;;;;3.80;2.65;;;10.10;99.90;;;;;;2056895;28;20022;-82
2023/11/05 02:47:21;;;;;;;4.13;2.63;;;10.10;99.90;;;;;;2050852;28;20587;-81
2023/11/05 02:48:22;;;;;;;3.92;2.78;;;10.10;99.90;;;;;;2055173;28;20345;-73
2023/11/05 02:49:23;;;;;;;3.80;2.83;;;10.10;99.90;;;;;;2062852;28;20061;-74
2023/11/05 02:50:23;;;;;;;4.65;2.75;;;10.10;99.90;;;;;;2054840;28;20035;-75
2023/11/05 02:51:24;;;;;;;3.33;2.40;;;10.10;99.90;;;;;;2064881;28;20084;-71
2023/11/05 02:52:24;;;;;;;4.45;2.60;;;10.10;99.90;;;;;;2062892;28;20041;-75
2023/11/05 02:53:25;;;;;;;4.07;2.40;;;10.10;99.90;;;;;;2066581;28;20037;-75
2023/11/05 02:54:27;;;;;;;4.38;2.58;;;10.10;99.90;;;;;;2066525;28;20316;-75
2023/11/05 02:55:28;;;;;;;4.25;2.78;;;10.10;99.90;;;;;;2054380;28;20030;-76
2023/11/05 02:56:29;;;;;;;3.13;2.55;;;10.10;99.90;;;;;;2042557;29;20357;-77
2023/11/05 02:57:29;;;;;;;3.40;2.40;;;10.10;99.90;;;;;;2058471;28;20034;-74
2023/11/05 02:58:30;;;;;;;3.50;2.58;;;10.10;99.90;;;;;;2062556;28;20401;-76
2023/11/05 02:59:30;;;;;;;4.70;2.63;;;10.10;99.90;;;;;;2066476;28;20048;-75
2023/11/05 03:00:33;;;;;;;2.90;2.50;;;10.00;99.90;;;;;;2058298;28;20057;-75
2023/11/05 03:01:35;;;;;;;4.35;2.70;;;10.00;99.90;;;;;;2054990;28;20479;-75
2023/11/05 03:02:39;;;;;;;3.45;2.67;;;10.00;99.90;;;;;;2056406;28;20133;-75
2023/11/05 03:03:40;;;;;;;4.82;2.70;;;10.00;99.90;;;;;;2059136;28;20030;-76
2023/11/05 03:04:41;;;;;;;4.88;2.70;;;10.00;99.90;;;;;;2067337;28;20123;-76
2023/11/05 03:05:43;;;;;;;4.40;2.50;;;10.00;99.90;;;;;;2066185;28;20041;-75
2023/11/05 03:06:49;;;;;;;6.22;2.70;;;10.00;99.90;;;;;;2066031;28;20230;-74
2023/11/05 03:07:50;;;;;;;3.47;2.55;;;10.00;99.90;;;;;;2061741;28;20022;-75
2023/11/05 03:08:51;;;;;;;3.65;2.70;;;10.00;99.90;;;;;;2034152;28;20031;-75
2023/11/05 03:09:51;;;;;;;3.97;2.80;;;10.00;99.90;;;;;;2050439;28;20058;-75
2023/11/05 03:10:52;;;;;;;4.43;2.53;;;10.00;99.90;;;;;;2058191;28;20037;-75
2023/11/05 03:11:53;;;;;;;4.72;2.60;;;10.00;99.90;;;;;;2066478;28;20030;-73
2023/11/05 03:12:53;;;;;;;3.10;2.50;;;10.00;99.90;;;;;;2066592;28;20041;-76
2023/11/05 03:13:54;;;;;;;4.40;2.55;;;9.90;99.90;;;;;;2054356;28;20128;-74
2023/11/05 03:14:55;;;;;;;4.65;2.70;;;9.90;99.90;;;;;;2046876;28;20027;-75
2023/11/05 03:15:56;;;;;;;5.38;3.25;;;9.90;99.90;;;;;;2066542;28;20519;-75
2023/11/05 03:16:57;;;;;;;5.47;3.15;;;9.90;99.90;;;;;;2066329;28;20524;-77
2023/11/05 03:17:58;;;;;;;6.35;3.50;;;9.90;99.90;;;;;;2050560;28;20035;-76
2023/11/05 03:18:58;;;;;;;4.68;3.15;;;9.90;99.90;;;;;;2046343;28;20054;-76
2023/11/05 03:19:59;;;;;;;6.25;3.15;;;9.90;99.90;;;;;;2049528;28;20026;-75
2023/11/05 03:21:00;;;;;;;5.35;3.28;;;9.90;99.90;;;;;;2058171;28;20173;-76
2023/11/05 03:22:00;;;;;;;5.65;3.90;;;9.80;99.90;;;;;;2066477;28;20045;-75
2023/11/05 03:23:02;;;;;;;5.63;3.60;;;9.80;99.90;;;;;;2067068;28;20041;-75
2023/11/05 03:24:03;;;;;;;4.43;3.42;;;9.80;99.90;;;;;;2063278;28;20437;-76
2023/11/05 03:25:05;;;;;;;3.55;2.97;;;9.80;99.90;;;;;;2066993;28;20080;-75
2023/11/05 03:26:05;;;;;;;4.38;3.70;;;9.80;99.90;;;;;;2058087;28;20213;-76
2023/11/05 03:27:07;;;;;;;6.05;4.00;;;9.80;99.90;;;;;;2050223;28;20119;-76
2023/11/05 03:28:08;;;;;;;4.20;3.20;;;9.80;99.90;;;;;;2052495;28;20505;-76
2023/11/05 03:29:08;;;;;;;5.03;3.65;;;9.80;99.90;;;;;;2058842;28;20064;-75
2023/11/05 03:30:09;;;;;;;4.07;2.45;;;9.80;99.90;;;;;;2064139;28;20033;-75
2023/11/05 03:31:14;;;;;;;2.90;2.58;;;9.70;99.90;;;;;;2066139;28;20335;-75
2023/11/05 03:32:15;;;;;;;4.88;2.42;;;9.70;99.90;;;;;;2058116;28;20120;-75
2023/11/05 03:33:15;;;;;;;3.35;2.38;;;9.70;99.90;;;;;;2058169;28;20540;-76
2023/11/05 03:34:18;;;;;;;3.80;2.58;;;9.70;99.90;;;;;;2058370;28;20026;-76
2023/11/05 03:35:19;;;;;;;2.80;2.30;;;9.70;99.90;;;;;;2062352;28;20022;-76
2023/11/05 03:36:19;;;;;;;3.75;2.63;;;9.70;99.90;;;;;;2063692;28;20035;-76
2023/11/05 03:37:20;;;;;;;3.80;2.60;;;9.70;99.90;;;;;;2066582;28;20153;-75
2023/11/05 03:38:20;;;;;;;2.85;2.30;;;9.70;99.90;;;;;;2063044;28;20037;-75
2023/11/05 03:39:21;;;;;;;3.40;2.30;;;9.70;99.90;;;;;;2066191;28;20088;-75
2023/11/05 03:40:22;;;;;;;3.00;2.40;;;9.70;99.90;;;;;;2066266;28;20022;-75
2023/11/05 03:41:22;;;;;;;3.55;2.53;;;9.70;99.90;;;;;;2059480;28;20070;-76
2023/11/05 03:42:23;;;;;;;3.80;2.38;;;9.70;99.90;;;;;;2057889;28;20384;-76
2023/11/05 03:43:23;;;;;;;3.78;2.40;;;9.70;99.90;;;;;;2058293;28;20085;-75
2023/11/05 03:44:24;;;;;;;3.70;2.60;;;9.70;99.90;;;;;;2058090;28;20085;-74
2023/11/05 03:45:25;;;;;;;2.88;2.28;;;9.60;99.90;;;;;;2041886;28;20030;-75
2023/11/05 03:46:26;;;;;;;3.28;2.70;;;9.60;99.90;;;;;;2057873;28;20480;-74
2023/11/05 03:47:26;;;;;;;4.55;2.83;;;9.60;99.90;;;;;;2061503;28;20026;-75
2023/11/05 03:48:27;;;;;;;3.13;2.72;;;9.60;99.90;;;;;;2057755;28;20417;-76
2023/11/05 03:49:28;;;;;;;4.32;2.60;;;9.60;99.90;;;;;;2066311;28;20034;-76
2023/11/05 03:50:28;;;;;;;3.63;2.35;;;9.60;99.90;;;;;;2062695;28;20045;-75
2023/11/05 03:51:29;;;;;;;3.20;2.50;;;9.50;99.90;;;;;;2066014;28;20025;-75
2023/11/05 03:52:30;;;;;;;3.92;2.53;;;9.50;99.90;;;;;;2058079;28;20034;-76
2023/11/05 03:53:30;;;;;;;4.20;2.60;;;9.50;99.90;;;;;;2051282;28;20038;-75
2023/11/05 03:54:31;;;;;;;3.45;2.50;;;9.40;99.90;;;;;;2061708;28;20030;-75
2023/11/05 03:55:31;;;;;;;3.05;2.42;;;9.40;99.90;;;;;;2063604;28;20044;-75
2023/11/05 03:56:32;;;;;;;5.43;2.72;;;9.40;99.90;;;;;;2065621;28;20026;-75
2023/11/05 03:57:33;;;;;;;5.60;2.30;;;9.30;99.90;;;;;;2063025;28;20057;-76
2023/11/05 03:58:34;;;;;;;3.28;2.20;;;9.30;99.90;;;;;;2062821;28;20112;-75
2023/11/05 03:59:34;;;;;;;2.75;2.22;;;9.30;99.90;;;;;;2065173;28;20037;-75
2023/11/05 04:00:35;;;;;;;3.55;2.33;;;9.20;99.90;;;;;;2062239;28;20072;-75
2023/11/05 04:01:36;;;;;;;3.90;2.20;;;9.20;99.90;;;;;;2059492;28;20709;-74
2023/11/05 04:02:36;;;;;;;3.25;2.40;;;9.20;99.90;;;;;;2053928;28;20420;-76
2023/11/05 04:03:37;;;;;;;2.65;2.20;;;9.20;99.90;;;;;;2062749;28;20017;-75
2023/11/05 04:04:39;;;;;;;4.15;2.25;;;9.10;99.90;;;;;;2062568;28;20038;-76
2023/11/05 04:05:41;;;;;;;4.50;2.22;;;9.10;99.90;;;;;;2062804;28;20488;-74
2023/11/05 04:06:41;;;;;;;4.35;2.40;;;9.10;99.90;;;;;;2065268;28;20083;-75
2023/11/05 04:07:42;;;;;;;2.85;2.38;;;9.10;99.90;;;;;;2062492;28;20589;-76
2023/11/05 04:08:46;;;;;;;3.78;2.58;;;9.10;99.90;;;;;;2055997;28;20038;-75
2023/11/05 04:09:47;;;;;;;4.45;2.30;;;9.10;99.90;;;;;;2058389;28;20116;-75
2023/11/05 04:10:48;;;;;;;2.65;2.40;;;9.00;99.90;;;;;;2065574;28;20030;-75
2023/11/05 04:11:48;;;;;;;3.75;2.45;;;9.00;99.90;;;;;;2060839;28;20037;-76
2023/11/05 04:12:49;;;;;;;3.30;2.30;;;9.00;99.90;;;;;;2054635;28;20485;-75
2023/11/05 04:13:49;;;;;;;2.80;2.10;;;9.00;99.90;;;;;;2051835;28;20030;-76
2023/11/05 04:14:50;;;;;;;2.80;2.15;;;9.10;99.90;;;;;;2058378;28;20018;-77
2023/11/05 04:15:50;;;;;;;4.65;2.20;;;9.10;99.90;;;;;;2063412;28;20084;-75
2023/11/05 04:16:52;;;;;;;3.42;2.38;;;9.10;99.90;;;;;;2060761;28;20244;-76
2023/11/05 04:17:53;;;;;;;3.67;2.15;;;9.10;99.90;;;;;;2062738;28;20022;-74
2023/11/05 04:18:53;;;;;;;2.58;2.17;;;9.10;99.90;;;;;;2063067;28;20093;-76
2023/11/05 04:19:54;;;;;;;3.08;2.00;;;9.10;99.90;;;;;;2066198;28;20071;-77
2023/11/05 04:20:54;;;;;;;2.63;2.10;;;9.10;99.90;;;;;;2066464;28;20364;-76
2023/11/05 04:21:55;;;;;;;4.00;2.40;;;9.10;99.90;;;;;;2065996;28;20030;-76
2023/11/05 04:22:55;;;;;;;5.75;2.30;;;9.10;99.90;;;;;;2062286;28;20296;-77
2023/11/05 04:23:56;;;;;;;3.83;2.20;;;9.10;99.90;;;;;;2066318;28;20149;-76
2023/11/05 04:24:57;;;;;;;3.33;2.38;;;9.10;99.90;;;;;;2062038;28;20495;-75
2023/11/05 04:25:57;;;;;;;5.28;2.45;;;9.10;99.90;;;;;;2062245;28;20054;-75
2023/11/05 04:26:58;;;;;;;3.30;2.00;;;9.10;99.90;;;;;;2058249;28;20125;-76
2023/11/05 04:27:58;;;;;;;2.92;2.20;;;9.10;99.90;;;;;;2057695;28;20038;-76
2023/11/05 04:28:59;;;;;;;2.92;2.30;;;9.10;99.90;;;;;;2066043;28;20022;-75
2023/11/05 04:30:00;;;;;;;3.22;2.20;;;9.10;99.90;;;;;;2065680;28;20563;-76
2023/11/05 04:31:00;;;;;;;3.30;2.20;;;9.10;99.90;;;;;;2066264;28;20488;-76
2023/11/05 04:32:01;;;;;;;4.32;2.17;;;9.10;99.90;;;;;;2066036;28;20075;-74
2023/11/05 04:33:01;;;;;;;3.65;2.70;;;9.10;99.90;;;;;;2059132;28;20031;-76
2023/11/05 04:34:04;;;;;;;4.10;2.30;;;9.10;99.90;;;;;;2053976;28;20073;-76
2023/11/05 04:35:05;;;;;;;3.97;2.25;;;9.00;99.90;;;;;;2053047;28;20031;-77
2023/11/05 04:36:05;;;;;;;3.17;2.13;;;9.00;99.90;;;;;;2063602;28;20049;-75
2023/11/05 04:37:06;;;;;;;2.95;2.17;;;9.00;99.90;;;;;;2066067;28;20032;-76
2023/11/05 04:38:08;;;;;;;3.17;2.20;;;9.00;99.90;;;;;;2066601;28;20493;-75
2023/11/05 04:39:08;;;;;;;2.60;2.08;;;9.00;99.90;;;;;;2063422;28;20022;-75
2023/11/05 04:40:09;;;;;;;2.50;2.30;;;9.00;99.90;;;;;;2060427;28;20034;-76
2023/11/05 04:41:11;;;;;;;2.95;2.30;;;8.90;99.90;;;;;;2065937;28;20491;-75
2023/11/05 04:42:12;;;;;;;3.33;2.30;;;8.90;99.90;;;;;;2062586;28;20069;-76
2023/11/05 04:43:12;;;;;;;2.75;2.33;;;8.90;99.90;;;;;;2062316;28;20497;-75
2023/11/05 04:44:13;;;;;;;3.47;2.40;;;8.90;99.90;;;;;;2063229;28;20030;-75
2023/11/05 04:45:14;;;;;;;2.60;2.30;;;8.90;99.90;;;;;;2059738;28;20085;-76
2023/11/05 04:46:15;;;;;;;4.15;2.63;;;8.90;99.90;;;;;;2062587;28;20109;-75
2023/11/05 04:47:15;;;;;;;4.45;2.88;;;8.90;99.90;;;;;;2066559;28;20113;-77
2023/11/05 04:48:16;;;;;;;3.80;2.85;;;8.80;99.90;;;;;;2055232;28;20027;-75
2023/11/05 04:49:17;;;;;;;4.00;2.80;;;8.80;99.90;;;;;;2048329;28;20038;-75
2023/11/05 04:50:17;;;;;;;3.78;2.75;;;8.80;99.90;;;;;;2056273;28;20546;-76
2023/11/05 04:51:18;;;;;;;3.95;2.67;;;8.80;99.90;;;;;;2058363;28;20606;-75
2023/11/05 04:52:19;;;;;;;3.78;2.70;;;8.80;99.90;;;;;;2050411;28;20031;-75
2023/11/05 04:53:19;;;;;;;3.95;2.70;;;8.80;99.90;;;;;;2057623;28;20030;-75
2023/11/05 04:54:20;;;;;;;4.50;2.80;;;8.90;99.90;;;;;;2058682;28;20552;-75
2023/11/05 04:55:21;;;;;;;4.32;2.97;;;8.90;99.90;;;;;;2051440;28;20485;-75
2023/11/05 04:56:22;;;;;;;3.55;2.92;;;8.80;99.90;;;;;;2046070;28;20070;-75
2023/11/05 04:57:22;;;;;;;4.07;2.85;;;8.90;99.90;;;;;;2054194;28;20106;-75
2023/11/05 04:58:23;;;;;;;4.95;2.60;;;8.90;99.90;;;;;;2049777;28;20025;-76
2023/11/05 04:59:24;;;;;;;5.53;2.80;;;8.90;99.90;;;;;;2053213;28;20026;-75
2023/11/05 05:00:24;;;;;;;4.00;2.78;;;8.80;99.90;;;;;;2057822;28;20066;-76
2023/11/05 05:01:25;;;;;;;3.55;2.75;;;8.80;99.90;;;;;;2062360;28;20112;-75
2023/11/05 05:02:27;;;;;;;3.08;2.75;;;8.80;99.90;;;;;;2066748;28;20040;-75
2023/11/05 05:03:28;;;;;;;3.63;2.65;;;8.80;99.90;;;;;;2064982;28;20042;-74
2023/11/05 05:04:28;;;;;;;3.47;2.58;;;8.80;99.90;;;;;;2065647;28;20030;-72
2023/11/05 05:05:30;;;;;;;5.82;2.92;;;8.80;99.90;;;;;;2061781;28;20488;-74
2023/11/05 05:06:30;;;;;;;4.38;2.92;;;8.80;99.90;;;;;;2060014;28;20045;-74
2023/11/05 05:07:31;;;;;;;5.18;2.85;;;8.80;99.90;;;;;;2063416;28;20463;-74
2023/11/05 05:08:32;;;;;;;3.58;2.70;;;8.80;99.90;;;;;;2047869;28;20035;-75
2023/11/05 05:09:33;;;;;;;3.25;2.60;;;8.70;99.90;;;;;;2059332;28;20028;-75
2023/11/05 05:10:34;;;;;;;3.90;2.60;;;8.70;99.90;;;;;;2064209;28;20508;-74
2023/11/05 05:11:34;;;;;;;5.13;2.70;;;8.70;99.90;;;;;;2068018;28;20064;-75
2023/11/05 05:12:35;;;;;;;4.40;2.50;;;8.70;99.90;;;;;;2062042;28;20034;-76
2023/11/05 05:13:36;;;;;;;3.10;2.70;;;8.80;99.90;;;;;;2055330;28;20026;-74
2023/11/05 05:14:36;;;;;;;3.38;2.63;;;8.70;99.90;;;;;;2061090;28;20320;-75
2023/11/05 05:15:38;;;;;;;3.38;2.60;;;8.70;99.90;;;;;;2066974;28;20030;-74
2023/11/05 05:16:38;;;;;;;4.22;2.58;;;8.70;99.90;;;;;;2065673;28;20034;-75
2023/11/05 05:17:39;;;;;;;3.65;2.65;;;8.70;99.90;;;;;;2063880;28;20188;-75
2023/11/05 05:18:40;;;;;;;3.05;2.55;;;8.70;99.90;;;;;;2068076;28;20025;-75